Time;durP1;ratioP1;P1;durP2;ratioP2;P2;SDS_P1;SDS_P2;PMS_P1;PMS_P2;Temp;Humidity;BMP_temperature;BMP_pressure;BME280_temperature;BME280_humidity;BME280_pressure;Samples;Min_cycle;Max_cycle;Signal;HPM_P1;HPM_P2
2021/03/22 00:11:16;;;;;;;113.78;51.17;;;-0.90;99.90;;;;;;6281749;22;20388;-96
2021/03/22 00:14:41;;;;;;;208.85;59.88;;;-1.10;99.90;;;;;;6244651;22;20517;-96
2021/03/22 00:21:49;;;;;;;161.57;61.05;;;-1.20;99.90;;;;;;6054462;23;20412;-96
2021/03/22 05:32:49;;;;;;;30.00;13.85;;;-1.60;99.90;;;;;;6307332;22;20416;-93
2021/03/22 05:35:41;;;;;;;34.53;15.27;;;-1.60;99.90;;;;;;6136747;23;20478;-96
2021/03/22 05:38:20;;;;;;;37.95;16.35;;;-1.80;99.90;;;;;;6108785;23;20450;-95
2021/03/22 05:53:08;;;;;;;;;;;;;;;;;;;;;
2021/03/22 06:03:43;;;;;;;;;;;;;;;;;;;;;
2021/03/22 06:37:23;;;;;;;37.05;15.60;;;-1.10;99.90;;;;;;6322143;22;20384;-96
2021/03/22 06:40:27;;;;;;;37.67;16.13;;;-1.10;99.90;;;;;;6325667;22;20369;-96
2021/03/22 06:43:24;;;;;;;37.38;15.75;;;-0.80;99.90;;;;;;6323116;22;20376;-95
2021/03/22 06:46:12;;;;;;;33.63;15.27;;;-0.50;99.90;;;;;;6324218;22;20365;-96
2021/03/22 06:52:30;;;;;;;28.88;12.10;;;1.10;99.90;;;;;;6294855;22;20393;-96
2021/03/22 06:55:50;;;;;;;22.52;10.20;;;2.60;99.90;;;;;;6348557;22;20537;-96
2021/03/22 06:58:31;;;;;;;28.05;10.82;;;3.70;96.40;;;;;;6298643;22;20377;-96
2021/03/22 07:01:40;;;;;;;20.80;9.27;;;4.60;97.20;;;;;;6270953;22;20465;-96
2021/03/22 07:04:34;;;;;;;18.92;8.40;;;5.90;87.50;;;;;;6327045;22;20967;-96
2021/03/22 07:08:10;;;;;;;17.90;7.90;;;6.20;79.60;;;;;;6297888;22;20369;-96
2021/03/22 07:11:02;;;;;;;24.30;7.30;;;6.10;75.60;;;;;;6158192;23;20401;-96
2021/03/22 07:20:25;;;;;;;16.38;6.43;;;7.00;67.30;;;;;;6343477;22;20476;-95
2021/03/22 07:44:12;;;;;;;;;;;;;;;;;;;;;
2021/03/22 07:48:01;;;;;;;14.10;5.93;;;4.20;89.00;;;;;;6196979;23;20369;-96
2021/03/22 07:58:50;;;;;;;21.15;6.93;;;5.90;75.50;;;;;;6323440;22;20362;-96
2021/03/22 08:01:53;;;;;;;16.80;6.55;;;4.70;81.50;;;;;;6296897;22;20378;-96
2021/03/22 08:04:34;;;;;;;19.13;7.45;;;5.10;80.80;;;;;;6289070;22;20441;-96
2021/03/22 08:08:10;;;;;;;;;;;;;;;;;;;;;
2021/03/22 08:11:19;;;;;;;19.85;7.55;;;4.60;77.60;;;;;;6317779;22;20428;-96
2021/03/22 08:15:16;;;;;;;17.75;7.13;;;3.70;85.00;;;;;;6302155;22;20423;-96
2021/03/22 08:32:19;;;;;;;;;;;;;;;;;;;;;
2021/03/22 08:35:48;;;;;;;11.73;4.73;;;7.00;67.20;;;;;;6249906;23;20898;-96
2021/03/22 08:38:57;;;;;;;13.07;5.07;;;6.60;65.60;;;;;;6227417;23;20394;-96
2021/03/22 08:41:32;;;;;;;14.15;4.85;;;6.70;65.20;;;;;;6229610;23;20385;-95
2021/03/22 08:44:33;;;;;;;12.15;4.30;;;6.70;67.10;;;;;;6229673;23;20398;-95
2021/03/22 08:49:57;;;;;;;15.00;4.65;;;5.80;68.30;;;;;;6252613;23;20741;-96
2021/03/22 08:52:30;;;;;;;13.80;4.77;;;6.10;71.40;;;;;;6227499;23;20708;-96
2021/03/22 08:55:12;;;;;;;14.98;5.10;;;6.00;66.20;;;;;;6232552;23;20382;-96
2021/03/22 08:58:09;;;;;;;11.18;5.10;;;5.80;68.30;;;;;;6259240;23;20368;-96
2021/03/22 09:04:37;;;;;;;10.77;3.53;;;7.20;62.40;;;;;;6140485;23;20363;-92
2021/03/22 09:12:54;;;;;;;10.43;3.53;;;5.20;63.00;;;;;;6349748;22;20480;-92
2021/03/22 09:16:08;;;;;;;11.43;3.35;;;5.10;67.80;;;;;;6350474;22;20427;-92
2021/03/22 09:19:22;;;;;;;11.68;4.68;;;5.10;65.80;;;;;;6256719;23;20373;-93
2021/03/22 09:22:12;;;;;;;9.85;3.75;;;4.20;67.50;;;;;;6183109;23;20377;-91
2021/03/22 09:24:57;;;;;;;9.70;3.58;;;4.00;70.50;;;;;;6228437;23;20453;-93
2021/03/22 09:27:51;;;;;;;8.95;3.33;;;3.90;70.30;;;;;;6234104;23;20388;-92
2021/03/22 09:30:45;;;;;;;11.13;3.38;;;3.50;71.10;;;;;;6233249;23;20465;-92
2021/03/22 09:34:28;;;;;;;9.63;3.37;;;3.50;71.30;;;;;;6210973;23;20394;-92
2021/03/22 09:37:57;;;;;;;9.15;3.10;;;3.90;72.90;;;;;;6139265;23;20457;-93
2021/03/22 09:41:18;;;;;;;10.07;3.85;;;4.10;68.50;;;;;;6092957;23;20388;-93
2021/03/22 09:44:35;;;;;;;9.32;3.00;;;4.90;63.50;;;;;;6110616;23;20398;-93
2021/03/22 09:48:18;;;;;;;12.55;3.45;;;5.10;65.70;;;;;;6051530;23;20393;-96
2021/03/22 09:51:08;;;;;;;10.05;2.67;;;4.60;67.10;;;;;;6051517;23;20426;-94
2021/03/22 09:54:03;;;;;;;8.35;2.50;;;4.60;63.10;;;;;;5119486;27;20376;-94
2021/03/22 09:56:40;;;;;;;7.03;1.90;;;4.40;62.80;;;;;;5118613;28;20409;-94
2021/03/22 09:59:37;;;;;;;8.85;2.40;;;4.60;66.00;;;;;;5121467;28;20501;-95
2021/03/22 10:02:45;;;;;;;7.20;2.17;;;4.70;65.00;;;;;;5122248;28;20421;-96
2021/03/22 10:05:22;;;;;;;6.45;1.83;;;4.80;61.70;;;;;;5038835;28;20426;-94
2021/03/22 10:08:04;;;;;;;6.53;2.55;;;4.90;61.90;;;;;;5073147;22;20482;-95
2021/03/22 10:10:31;;;;;;;9.97;2.27;;;4.00;61.40;;;;;;5090675;28;20419;-95
2021/03/22 10:13:06;;;;;;;6.85;2.28;;;3.80;64.60;;;;;;5091315;28;20439;-94
2021/03/22 10:15:42;;;;;;;5.07;1.90;;;4.00;63.50;;;;;;5090093;28;20411;-96
2021/03/22 10:18:28;;;;;;;8.95;2.20;;;4.10;63.40;;;;;;5090784;28;20411;-93
2021/03/22 10:21:09;;;;;;;8.30;2.60;;;3.90;66.90;;;;;;5090446;28;20777;-94
2021/03/22 10:23:56;;;;;;;9.23;2.37;;;3.80;65.80;;;;;;5090046;28;20419;-93
2021/03/22 10:26:29;;;;;;;5.47;2.10;;;3.70;64.90;;;;;;5090212;28;20418;-94
2021/03/22 10:29:20;;;;;;;8.00;2.00;;;3.50;66.80;;;;;;5090442;28;20411;-94
2021/03/22 10:32:02;;;;;;;6.88;2.10;;;3.80;68.20;;;;;;5089455;28;20542;-94
2021/03/22 10:35:01;;;;;;;10.18;2.33;;;4.10;65.60;;;;;;5090430;28;20437;-95
2021/03/22 10:37:39;;;;;;;8.70;2.33;;;4.20;62.30;;;;;;5090698;28;20906;-93
2021/03/22 10:40:26;;;;;;;6.28;2.05;;;4.10;66.60;;;;;;5090883;28;20423;-93
2021/03/22 10:43:05;;;;;;;8.45;2.28;;;4.00;68.00;;;;;;5089839;28;20509;-95
2021/03/22 10:45:42;;;;;;;6.05;1.98;;;4.10;64.30;;;;;;5090278;28;20445;-92
2021/03/22 10:48:24;;;;;;;10.25;2.30;;;4.40;61.60;;;;;;5090997;28;20422;-95
2021/03/22 10:51:00;;;;;;;9.10;2.73;;;3.90;60.80;;;;;;5089602;28;20513;-93
2021/03/22 10:53:28;;;;;;;7.45;2.45;;;3.80;62.80;;;;;;5089742;28;20505;-92
2021/03/22 10:55:55;;;;;;;9.90;2.70;;;3.50;62.60;;;;;;5089092;28;20419;-92
2021/03/22 10:58:35;;;;;;;8.93;3.00;;;3.60;65.80;;;;;;5089172;28;20419;-93
2021/03/22 11:01:05;;;;;;;9.13;2.70;;;3.50;65.70;;;;;;5089211;28;20423;-94
2021/03/22 11:03:34;;;;;;;8.00;2.55;;;3.60;66.20;;;;;;5084654;28;20592;-95
2021/03/22 11:06:09;;;;;;;9.77;3.00;;;3.40;65.00;;;;;;5075626;28;20416;-93
2021/03/22 11:08:39;;;;;;;10.63;2.78;;;3.20;67.40;;;;;;5075507;28;20439;-93
2021/03/22 11:11:08;;;;;;;8.65;3.00;;;3.50;67.20;;;;;;5077662;28;20426;-94
2021/03/22 11:13:38;;;;;;;10.02;3.38;;;3.80;65.20;;;;;;5076937;28;20435;-94
2021/03/22 11:16:34;;;;;;;6.25;2.78;;;4.00;66.90;;;;;;5077179;28;20419;-93
2021/03/22 11:19:18;;;;;;;7.88;3.28;;;4.20;63.90;;;;;;5078567;28;20420;-96
2021/03/22 11:21:45;;;;;;;9.07;3.58;;;3.90;63.60;;;;;;5079205;28;20416;-96
2021/03/22 11:24:31;;;;;;;10.60;3.67;;;3.60;65.40;;;;;;5080557;28;20444;-96
2021/03/22 11:30:16;;;;;;;9.73;3.50;;;5.10;61.40;;;;;;5216649;23;20427;-96
2021/03/22 11:34:06;;;;;;;9.35;3.40;;;5.50;58.40;;;;;;5646614;23;20497;-95
2021/03/22 11:37:12;;;;;;;10.52;3.72;;;4.70;61.40;;;;;;5013902;28;20470;-96
2021/03/22 11:40:19;;;;;;;10.93;4.18;;;4.00;62.00;;;;;;5015353;28;20418;-96
2021/03/22 11:48:47;;;;;;;10.43;3.88;;;4.60;63.40;;;;;;1259350;22;20639;-96
2021/03/22 12:08:42;;;;;;;13.57;4.20;;;5.80;61.10;;;;;;5978015;23;20387;-95
2021/03/22 12:17:21;;;;;;;11.95;4.15;;;3.20;72.20;;;;;;5783348;23;20398;-96
2021/03/22 13:02:40;;;;;;;9.60;3.70;;;4.60;63.40;;;;;;5597428;23;20536;-96
2021/03/22 13:05:36;;;;;;;8.77;3.08;;;4.30;66.30;;;;;;4990462;28;20430;-95
2021/03/22 13:09:23;;;;;;;8.65;2.97;;;3.70;68.30;;;;;;4894995;29;20493;-95
2021/03/22 13:12:32;;;;;;;8.45;2.90;;;3.40;60.80;;;;;;5846647;23;20460;-95
2021/03/22 13:25:22;;;;;;;11.02;3.28;;;2.20;68.80;;;;;;5984344;23;20392;-95
2021/03/22 13:28:53;;;;;;;11.90;4.00;;;3.00;67.90;;;;;;4996032;28;20493;-94
2021/03/22 14:15:27;;;;;;;13.80;6.30;;;7.20;71.20;;;;;;5484747;23;20418;-96
2021/03/22 15:01:05;;;;;;;18.70;6.53;;;3.20;92.20;;;;;;952561;23;20617;-95
2021/03/22 15:03:50;;;;;;;17.88;7.00;;;3.10;92.60;;;;;;4894250;29;20436;-96
2021/03/22 15:07:44;;;;;;;16.85;6.90;;;2.90;96.00;;;;;;4821169;29;20436;-96
2021/03/22 15:10:20;;;;;;;17.75;7.30;;;2.50;98.30;;;;;;4825131;29;20495;-96
2021/03/22 21:25:54;;;;;;;26.13;11.93;;;-0.30;99.90;;;;;;4945427;28;20426;-95
